createdAt,value
2019-03-11T00:00:15.255Z,1.90
2019-03-11T00:02:44.796Z,1.73
2019-03-11T00:05:14.389Z,2.33
2019-03-11T00:07:43.643Z,2.10
2019-03-11T00:10:12.813Z,1.70
2019-03-11T00:12:42.052Z,1.70
2019-03-11T00:15:11.874Z,2.43
2019-03-11T00:17:41.410Z,2.13
2019-03-11T00:20:10.891Z,2.43
2019-03-11T00:22:40.149Z,1.53
2019-03-11T00:25:09.821Z,1.73
2019-03-11T00:27:38.976Z,1.73
2019-03-11T00:30:08.659Z,1.60
2019-03-11T00:32:37.812Z,1.60
2019-03-11T00:35:07.908Z,1.80
2019-03-11T00:37:37.151Z,1.50
2019-03-11T00:40:07.286Z,2.10
2019-03-11T00:42:36.420Z,2.00
2019-03-11T00:45:06.505Z,1.73
2019-03-11T00:47:35.744Z,1.47
2019-03-11T00:50:06.045Z,1.70
2019-03-11T00:52:35.299Z,1.50
2019-03-11T00:55:05.250Z,1.37
2019-03-11T00:57:34.803Z,1.83
2019-03-11T01:00:04.601Z,2.33
2019-03-11T01:02:34.786Z,1.47
2019-03-11T01:05:04.054Z,1.87
2019-03-11T01:07:33.251Z,1.73
2019-03-11T01:10:02.753Z,2.63
2019-03-11T01:12:32.210Z,1.93
2019-03-11T01:15:01.398Z,1.50
2019-03-11T01:17:30.645Z,1.57
2019-03-11T01:19:59.855Z,1.40
2019-03-11T01:22:29.011Z,1.60
2019-03-11T01:24:58.525Z,1.63
2019-03-11T01:27:27.692Z,1.43
2019-03-11T01:29:56.850Z,1.57
2019-03-11T01:32:26.844Z,1.60
2019-03-11T01:34:56.642Z,1.23
2019-03-11T01:37:25.820Z,1.57
2019-03-11T01:39:54.974Z,1.30
2019-03-11T01:42:24.128Z,1.70
2019-03-11T01:44:53.282Z,1.53
2019-03-11T01:47:22.729Z,1.27
2019-03-11T01:49:52.210Z,1.50
2019-03-11T01:52:21.844Z,1.37
2019-03-11T01:54:50.986Z,1.50
2019-03-11T01:57:20.144Z,1.80
2019-03-11T01:59:49.640Z,1.60
2019-03-11T02:02:19.238Z,1.40
2019-03-11T02:04:48.454Z,1.33
2019-03-11T02:07:17.680Z,1.37
2019-03-11T02:09:46.844Z,1.27
2019-03-11T02:12:16.324Z,1.30
2019-03-11T02:14:45.802Z,1.83
2019-03-11T02:17:15.344Z,1.03
2019-03-11T02:19:44.481Z,1.30
2019-03-11T02:22:14.112Z,1.53
2019-03-11T02:24:43.273Z,1.40
2019-03-11T02:27:12.529Z,1.20
2019-03-11T02:29:42.116Z,1.13
2019-03-11T02:32:11.451Z,1.73
2019-03-11T02:34:40.629Z,2.17
2019-03-11T02:37:09.817Z,1.20
2019-03-11T02:39:39.479Z,1.40
2019-03-11T02:42:08.953Z,1.73
2019-03-11T02:44:38.154Z,2.03
2019-03-11T02:47:07.484Z,1.50
2019-03-11T02:49:36.643Z,1.67
2019-03-11T02:52:05.864Z,2.07
2019-03-11T02:54:35.014Z,1.53
2019-03-11T02:57:04.224Z,2.33
2019-03-11T02:59:33.711Z,1.70
2019-03-11T03:02:11.634Z,1.43
2019-03-11T03:04:44.349Z,1.97
2019-03-11T03:07:13.628Z,1.50
2019-03-11T03:09:43.103Z,1.80
2019-03-11T03:12:12.356Z,1.83
2019-03-11T03:14:42.333Z,1.70
2019-03-11T03:17:11.573Z,1.97
2019-03-11T03:19:41.094Z,1.70
2019-03-11T03:22:10.239Z,2.10
2019-03-11T03:24:39.730Z,1.90
2019-03-11T03:27:08.956Z,1.93
2019-03-11T03:29:38.113Z,1.87
2019-03-11T03:32:07.733Z,2.37
2019-03-11T03:34:37.562Z,1.50
2019-03-11T03:37:07.154Z,2.37
2019-03-11T03:39:36.470Z,2.40
2019-03-11T03:42:05.790Z,2.20
2019-03-11T03:44:35.342Z,1.80
2019-03-11T03:47:04.604Z,2.03
2019-03-11T03:49:33.925Z,2.27
2019-03-11T03:52:03.360Z,2.17
2019-03-11T03:54:32.606Z,2.10
2019-03-11T03:57:01.862Z,2.33
2019-03-11T03:59:31.441Z,2.00
2019-03-11T04:02:00.605Z,2.43
2019-03-11T04:04:29.920Z,1.93
2019-03-11T04:06:59.234Z,2.17
2019-03-11T04:09:28.460Z,1.80
2019-03-11T04:11:57.936Z,1.80
2019-03-11T04:14:27.168Z,2.20
2019-03-11T04:16:57.053Z,2.00
2019-03-11T04:19:29.112Z,2.10
2019-03-11T04:21:57.187Z,1.73
2019-03-11T04:24:26.673Z,1.57
2019-03-11T04:26:55.898Z,1.80
2019-03-11T04:29:25.430Z,1.80
2019-03-11T04:31:54.799Z,2.00
2019-03-11T04:34:24.383Z,1.93
2019-03-11T04:36:53.621Z,1.70
2019-03-11T04:39:23.105Z,2.17
2019-03-11T04:41:52.913Z,1.93
2019-03-11T04:44:22.075Z,2.23
2019-03-11T04:46:51.597Z,1.60
2019-03-11T04:49:20.753Z,2.13
2019-03-11T04:51:49.907Z,2.00
2019-03-11T04:54:19.077Z,2.23
2019-03-11T04:56:49.004Z,1.63
2019-03-11T04:59:18.256Z,2.87
2019-03-11T05:01:47.494Z,2.20
2019-03-11T05:04:16.663Z,2.17
2019-03-11T05:06:45.889Z,2.00
2019-03-11T05:09:15.109Z,2.80
2019-03-11T05:11:44.446Z,2.30
2019-03-11T05:14:13.605Z,3.10
2019-03-11T05:16:43.752Z,1.80
2019-03-11T05:19:12.913Z,2.03
2019-03-11T05:21:42.424Z,1.40
2019-03-11T05:24:11.752Z,2.57
2019-03-11T05:26:41.682Z,2.40
2019-03-11T05:29:10.845Z,1.97
2019-03-11T05:31:39.994Z,2.53
2019-03-11T05:34:09.444Z,2.13
2019-03-11T05:36:38.621Z,2.30
2019-03-11T05:39:08.609Z,4.43
2019-03-11T05:41:37.845Z,2.70
2019-03-11T05:44:07.311Z,2.33
2019-03-11T05:46:36.564Z,1.90
2019-03-11T05:49:05.867Z,2.53
2019-03-11T05:51:35.127Z,2.40
2019-03-11T05:54:04.309Z,2.30
2019-03-11T05:56:33.636Z,2.60
2019-03-11T05:59:03.190Z,2.23
2019-03-11T06:01:32.446Z,3.20
2019-03-11T06:04:01.693Z,2.20
2019-03-11T06:06:30.992Z,2.70
2019-03-11T06:09:00.315Z,3.10
2019-03-11T06:11:29.492Z,3.50
2019-03-11T06:13:58.870Z,2.93
2019-03-11T06:16:35.918Z,2.47
2019-03-11T06:19:05.473Z,2.27
2019-03-11T06:21:46.724Z,2.47
2019-03-11T06:24:15.959Z,2.63
2019-03-11T06:26:45.402Z,2.13
2019-03-11T06:29:14.717Z,2.03
2019-03-11T06:31:43.987Z,2.27
2019-03-11T06:34:13.142Z,2.33
2019-03-11T06:36:42.388Z,2.60
2019-03-11T06:39:12.288Z,3.40
2019-03-11T06:41:41.466Z,2.70
2019-03-11T06:44:10.752Z,2.67
2019-03-11T06:46:40.006Z,2.57
2019-03-11T06:49:09.176Z,2.43
2019-03-11T06:51:38.366Z,3.37
2019-03-11T06:54:07.938Z,2.30
2019-03-11T06:56:37.123Z,2.37
2019-03-11T06:59:06.570Z,2.80
2019-03-11T07:01:35.755Z,2.10
2019-03-11T07:04:04.904Z,3.70
2019-03-11T07:06:34.394Z,1.90
2019-03-11T07:09:05.095Z,2.10
2019-03-11T07:11:34.252Z,1.93
2019-03-11T07:14:03.497Z,2.20
2019-03-11T07:16:33.273Z,1.90
2019-03-11T07:19:02.917Z,1.93
2019-03-11T07:21:32.166Z,2.00
2019-03-11T07:24:01.718Z,2.50
2019-03-11T07:26:30.953Z,2.70
2019-03-11T07:29:00.104Z,2.57
2019-03-11T07:31:29.371Z,2.60
2019-03-11T07:33:58.943Z,2.33
2019-03-11T07:36:28.475Z,2.60
2019-03-11T07:38:58.024Z,2.80
2019-03-11T07:41:27.237Z,2.20
2019-03-11T07:43:56.443Z,2.23
2019-03-11T07:46:26.011Z,3.00
2019-03-11T07:48:55.259Z,2.07
2019-03-11T07:51:24.425Z,2.67
2019-03-11T07:53:53.800Z,2.00
2019-03-11T07:56:22.955Z,2.27
2019-03-11T07:58:52.515Z,2.57
2019-03-11T08:01:21.683Z,2.40
2019-03-11T08:03:50.915Z,2.37
2019-03-11T08:06:20.236Z,2.13
2019-03-11T08:08:49.418Z,2.63
2019-03-11T08:11:18.835Z,2.67
2019-03-11T08:13:48.477Z,1.93
2019-03-11T08:16:17.691Z,2.47
2019-03-11T08:18:47.217Z,2.00
2019-03-11T08:21:16.440Z,1.93
2019-03-11T08:23:45.612Z,2.53
2019-03-11T08:26:14.989Z,2.77
2019-03-11T08:28:44.157Z,2.30
2019-03-11T08:31:13.689Z,2.53
2019-03-11T08:33:43.205Z,2.03
2019-03-11T08:36:12.392Z,2.40
2019-03-11T08:38:41.644Z,2.20
2019-03-11T08:41:10.875Z,2.10
2019-03-11T08:43:40.193Z,1.53
2019-03-11T08:46:09.425Z,2.13
2019-03-11T08:48:39.007Z,2.23
2019-03-11T08:51:08.249Z,1.60
2019-03-11T08:53:37.563Z,2.30
2019-03-11T08:56:07.159Z,2.03
2019-03-11T08:58:36.716Z,2.37
2019-03-11T09:01:06.259Z,2.10
2019-03-11T09:03:35.406Z,1.70
2019-03-11T09:06:04.537Z,1.63
2019-03-11T09:08:33.712Z,2.17
2019-03-11T09:11:02.853Z,2.80
2019-03-11T09:13:32.104Z,2.77
2019-03-11T09:16:20.911Z,2.37
2019-03-11T09:18:50.189Z,2.17
2019-03-11T09:21:19.694Z,2.10
2019-03-11T09:23:48.838Z,2.37
2019-03-11T09:26:18.056Z,2.33
2019-03-11T09:28:47.293Z,2.00
2019-03-11T09:31:16.424Z,2.20
2019-03-11T09:33:45.954Z,2.37
2019-03-11T09:36:15.193Z,1.90
2019-03-11T09:38:44.350Z,2.37
2019-03-11T09:41:13.509Z,2.43
2019-03-11T09:43:43.036Z,2.30
2019-03-11T09:46:31.286Z,2.60
2019-03-11T09:49:00.905Z,2.23
2019-03-11T09:51:30.135Z,2.07
2019-03-11T09:53:59.568Z,1.80
2019-03-11T09:56:29.002Z,1.90
2019-03-11T09:58:58.212Z,2.10
2019-03-11T10:01:27.690Z,1.90
2019-03-11T10:03:57.166Z,1.67
2019-03-11T10:06:27.005Z,2.40
2019-03-11T10:08:56.133Z,1.70
2019-03-11T10:11:25.321Z,2.27
2019-03-11T10:13:54.479Z,2.23
2019-03-11T10:16:23.646Z,1.87
2019-03-11T10:18:53.138Z,2.53
2019-03-11T10:21:22.311Z,2.10
2019-03-11T10:23:51.932Z,1.77
2019-03-11T10:26:21.185Z,2.73
2019-03-11T10:28:50.680Z,1.90
2019-03-11T10:31:19.943Z,1.70
2019-03-11T10:33:49.184Z,2.77
2019-03-11T10:36:18.801Z,2.13
2019-03-11T10:38:47.996Z,2.07
2019-03-11T10:41:17.238Z,2.63
2019-03-11T10:43:46.483Z,1.97
2019-03-11T10:46:16.008Z,1.73
2019-03-11T10:48:45.162Z,2.37
2019-03-11T10:51:14.376Z,2.30
2019-03-11T10:53:43.635Z,1.77
2019-03-11T10:56:12.774Z,2.37
2019-03-11T10:58:41.987Z,2.47
2019-03-11T11:01:11.212Z,2.03
2019-03-11T11:03:40.411Z,2.27
2019-03-11T11:06:09.644Z,1.47
2019-03-11T11:08:38.892Z,2.07
2019-03-11T11:11:08.080Z,2.00
2019-03-11T11:13:37.498Z,2.17
2019-03-11T11:16:07.184Z,1.90
2019-03-11T11:18:36.876Z,2.33
2019-03-11T11:21:06.809Z,1.93
2019-03-11T11:23:36.143Z,1.80
2019-03-11T11:26:05.719Z,2.10
2019-03-11T11:28:35.559Z,2.03
2019-03-11T11:31:05.089Z,1.60
2019-03-11T11:33:34.259Z,1.87
2019-03-11T11:36:03.433Z,2.30
2019-03-11T11:38:32.679Z,2.20
2019-03-11T11:41:02.220Z,1.57
2019-03-11T11:43:31.453Z,1.97
2019-03-11T11:46:00.644Z,2.23
2019-03-11T11:48:30.257Z,2.47
2019-03-11T11:50:59.441Z,2.10
2019-03-11T11:53:28.616Z,2.03
2019-03-11T11:55:58.287Z,2.00
2019-03-11T11:58:28.384Z,1.80
2019-03-11T12:00:57.936Z,1.90
2019-03-11T12:03:27.593Z,1.80
2019-03-11T12:05:56.803Z,1.67
2019-03-11T12:08:26.661Z,2.07
2019-03-11T12:10:56.271Z,2.00
2019-03-11T12:13:25.489Z,2.20
2019-03-11T12:15:54.674Z,2.10
2019-03-11T12:18:24.181Z,1.87
2019-03-11T12:20:53.492Z,1.87
2019-03-11T12:23:22.613Z,1.90
2019-03-11T12:25:51.846Z,1.90
2019-03-11T12:28:21.063Z,2.30
2019-03-11T12:30:50.229Z,2.07
2019-03-11T12:33:20.553Z,2.33
2019-03-11T12:35:49.959Z,2.00
2019-03-11T12:38:19.099Z,2.00
2019-03-11T12:40:48.287Z,2.30
2019-03-11T12:43:17.859Z,1.80
2019-03-11T12:45:47.109Z,1.47
2019-03-11T12:48:16.353Z,2.73
2019-03-11T12:50:46.380Z,2.00
2019-03-11T12:53:15.610Z,2.07
2019-03-11T12:55:44.897Z,1.60
2019-03-11T12:58:14.185Z,1.60
2019-03-11T13:00:43.680Z,2.30
2019-03-11T13:03:12.938Z,1.77
2019-03-11T13:05:42.384Z,2.17
2019-03-11T13:08:11.687Z,1.60
2019-03-11T13:10:41.186Z,1.67
2019-03-11T13:13:10.554Z,1.47
2019-03-11T13:15:39.761Z,1.80
2019-03-11T13:18:35.599Z,1.53
2019-03-11T13:21:09.409Z,2.10
2019-03-11T13:23:38.570Z,1.87
2019-03-11T13:26:07.726Z,1.90
2019-03-11T13:28:37.830Z,2.27
2019-03-11T13:31:07.095Z,1.93
2019-03-11T13:33:36.256Z,2.73
2019-03-11T13:36:07.862Z,1.47
2019-03-11T13:38:38.506Z,1.33
2019-03-11T13:41:08.159Z,1.87
2019-03-11T13:43:37.507Z,1.90
2019-03-11T13:46:07.098Z,1.93
2019-03-11T13:48:36.324Z,1.97
2019-03-11T13:51:06.435Z,1.70
2019-03-11T13:53:35.746Z,2.13
2019-03-11T13:56:04.972Z,1.70
2019-03-11T13:58:34.469Z,1.67
2019-03-11T14:01:03.924Z,1.73
2019-03-11T14:03:33.547Z,1.90
2019-03-11T14:06:02.810Z,1.80
2019-03-11T14:08:32.091Z,2.10
2019-03-11T14:11:01.313Z,1.90
2019-03-11T14:13:30.547Z,1.73
2019-03-11T14:15:59.708Z,1.70
2019-03-11T14:18:29.388Z,1.80
2019-03-11T14:20:58.618Z,2.00
2019-03-11T14:23:28.480Z,1.93
2019-03-11T14:25:57.634Z,2.00
2019-03-11T14:28:26.884Z,1.67
2019-03-11T14:30:56.356Z,1.87
2019-03-11T14:33:25.848Z,2.20
2019-03-11T14:35:55.097Z,1.93
2019-03-11T14:38:24.283Z,2.07
2019-03-11T14:40:53.614Z,2.00
2019-03-11T14:43:23.108Z,1.80
2019-03-11T14:45:52.263Z,2.30
2019-03-11T14:48:21.420Z,1.73
2019-03-11T14:50:50.669Z,2.07
2019-03-11T14:53:19.935Z,2.20
2019-03-11T14:55:49.093Z,2.27
2019-03-11T14:58:28.968Z,1.80
2019-03-11T15:00:50.152Z,2.40
2019-03-11T15:03:19.576Z,1.67
2019-03-11T15:05:49.031Z,1.70
2019-03-11T15:08:18.273Z,1.40
2019-03-11T15:10:47.461Z,2.10
2019-03-11T15:13:16.665Z,1.70
2019-03-11T15:15:45.846Z,1.40
2019-03-11T15:18:15.099Z,2.53
2019-03-11T15:20:44.665Z,1.70
2019-03-11T15:23:20.425Z,2.00
2019-03-11T15:25:44.937Z,1.97
2019-03-11T15:28:14.081Z,2.43
2019-03-11T15:30:43.258Z,2.23
2019-03-11T15:33:12.521Z,1.77
2019-03-11T15:35:41.833Z,2.20
2019-03-11T15:38:11.416Z,2.23
2019-03-11T15:40:40.977Z,1.93
2019-03-11T15:43:11.139Z,2.10
2019-03-11T15:45:40.341Z,1.87
2019-03-11T15:48:09.620Z,1.87
2019-03-11T15:50:38.922Z,1.90
2019-03-11T15:53:08.191Z,2.37
2019-03-11T15:55:37.693Z,2.40
2019-03-11T15:58:07.328Z,1.53
2019-03-11T16:00:37.276Z,2.07
2019-03-11T16:03:06.755Z,1.77
2019-03-11T16:05:36.023Z,2.20
2019-03-11T16:08:05.227Z,2.40
2019-03-11T16:10:34.412Z,2.53
2019-03-11T16:13:03.597Z,1.60
2019-03-11T16:15:33.197Z,2.20
2019-03-11T16:18:02.360Z,2.40
2019-03-11T16:20:31.525Z,2.40
2019-03-11T16:23:00.741Z,2.20
2019-03-11T16:25:30.113Z,2.07
2019-03-11T16:27:59.282Z,2.20
2019-03-11T16:30:28.537Z,2.10
2019-03-11T16:33:00.390Z,1.77
2019-03-11T16:35:29.193Z,2.73
2019-03-11T16:37:58.448Z,2.03
2019-03-11T16:40:28.181Z,2.20
2019-03-11T16:42:57.422Z,2.33
2019-03-11T16:45:26.934Z,2.43
2019-03-11T16:47:56.308Z,1.90
2019-03-11T16:50:25.499Z,2.13
2019-03-11T16:52:54.760Z,2.30
2019-03-11T16:55:27.685Z,2.03
2019-03-11T16:57:56.949Z,1.97
2019-03-11T17:00:30.799Z,2.10
2019-03-11T17:03:00.034Z,3.10
2019-03-11T17:05:29.294Z,2.40
2019-03-11T17:07:58.462Z,2.00
2019-03-11T17:10:27.865Z,2.47
2019-03-11T17:12:57.037Z,2.60
2019-03-11T17:15:26.364Z,3.37
2019-03-11T17:17:55.578Z,3.03
2019-03-11T17:20:25.142Z,2.80
2019-03-11T17:22:55.577Z,3.23
2019-03-11T17:25:25.094Z,2.63
2019-03-11T17:27:54.488Z,2.57
2019-03-11T17:30:24.296Z,2.60
2019-03-11T17:32:53.782Z,2.93
2019-03-11T17:35:23.029Z,3.03
2019-03-11T17:37:52.242Z,2.60
2019-03-11T17:40:21.817Z,3.07
2019-03-11T17:42:51.318Z,3.60
2019-03-11T17:45:39.712Z,3.07
2019-03-11T17:48:08.985Z,3.80
2019-03-11T17:50:38.288Z,3.23
2019-03-11T17:53:19.353Z,2.80
2019-03-11T17:55:39.255Z,3.50
2019-03-11T17:58:08.910Z,3.30
2019-03-11T18:00:39.974Z,2.93
2019-03-11T18:03:10.559Z,2.53
2019-03-11T18:05:39.902Z,3.17
2019-03-11T18:08:09.572Z,3.70
2019-03-11T18:10:39.674Z,5.83
2019-03-11T18:13:09.061Z,5.43
2019-03-11T18:15:38.326Z,4.40
2019-03-11T18:18:07.698Z,3.40
2019-03-11T18:20:37.060Z,3.50
2019-03-11T18:23:06.432Z,3.20
2019-03-11T18:25:35.694Z,3.13
2019-03-11T18:28:04.994Z,3.93
2019-03-11T18:30:34.315Z,3.30
2019-03-11T18:33:03.640Z,3.40
2019-03-11T18:35:34.266Z,3.73
2019-03-11T18:38:04.962Z,4.30
2019-03-11T18:40:34.418Z,4.73
2019-03-11T18:43:03.759Z,4.77
2019-03-11T18:45:33.451Z,3.87
2019-03-11T18:48:02.812Z,5.93
2019-03-11T18:50:32.043Z,6.57
2019-03-11T18:53:04.567Z,5.30
2019-03-11T18:55:33.881Z,5.60
2019-03-11T18:58:03.883Z,5.30
2019-03-11T19:00:33.125Z,5.03
2019-03-11T19:03:02.531Z,5.07
2019-03-11T19:05:31.897Z,5.50
2019-03-11T19:08:01.322Z,5.70
2019-03-11T19:10:30.559Z,5.53
2019-03-11T19:12:59.925Z,4.27
2019-03-11T19:15:29.443Z,5.53
2019-03-11T19:17:58.795Z,5.57
2019-03-11T19:20:28.464Z,5.97
2019-03-11T19:22:58.089Z,6.13
2019-03-11T19:25:27.426Z,5.60
2019-03-11T19:27:56.666Z,5.27
2019-03-11T19:30:25.907Z,6.00
2019-03-11T19:32:55.833Z,6.13
2019-03-11T19:35:25.244Z,7.23
2019-03-11T19:37:54.485Z,7.70
2019-03-11T19:40:23.988Z,7.73
2019-03-11T19:42:53.260Z,6.67
2019-03-11T19:45:22.786Z,6.77
2019-03-11T19:47:52.070Z,6.93
2019-03-11T19:50:21.578Z,7.20
2019-03-11T19:52:58.382Z,7.50
2019-03-11T19:55:21.698Z,7.80
2019-03-11T19:57:51.345Z,8.13
2019-03-11T20:00:21.312Z,8.17
2019-03-11T20:02:50.657Z,7.97
2019-03-11T20:05:21.578Z,7.83
2019-03-11T20:07:50.899Z,8.03
2019-03-11T20:10:20.329Z,8.70
2019-03-11T20:12:49.939Z,8.33
2019-03-11T20:15:19.210Z,9.03
2019-03-11T20:17:48.586Z,8.77
2019-03-11T20:20:18.317Z,7.93
2019-03-11T20:22:47.565Z,8.33
2019-03-11T20:25:19.358Z,7.57
2019-03-11T20:27:48.598Z,7.30
2019-03-11T20:30:20.057Z,6.73
2019-03-11T20:32:49.661Z,6.93
2019-03-11T20:35:18.983Z,6.83
2019-03-11T20:37:48.248Z,6.77
2019-03-11T20:40:17.501Z,6.97
2019-03-11T20:42:46.736Z,6.60
2019-03-11T20:45:16.097Z,6.33
2019-03-11T20:47:45.519Z,6.77
2019-03-11T20:50:14.832Z,6.37
2019-03-11T20:52:44.213Z,6.30
2019-03-11T20:55:13.911Z,6.53
2019-03-11T20:57:43.265Z,7.03
2019-03-11T21:00:17.399Z,6.63
2019-03-11T21:02:46.753Z,7.73
2019-03-11T21:05:17.280Z,7.33
2019-03-11T21:07:46.521Z,7.13
2019-03-11T21:10:16.636Z,7.87
2019-03-11T21:12:46.156Z,7.70
2019-03-11T21:15:15.524Z,7.47
2019-03-11T21:17:45.211Z,7.63
2019-03-11T21:20:14.635Z,7.07
2019-03-11T21:22:44.263Z,7.20
2019-03-11T21:25:15.253Z,6.37
2019-03-11T21:27:44.811Z,7.27
2019-03-11T21:30:18.620Z,7.77
2019-03-11T21:32:48.306Z,7.40
2019-03-11T21:35:17.893Z,7.30
2019-03-11T21:37:47.239Z,7.70
2019-03-11T21:40:17.640Z,7.57
2019-03-11T21:42:47.115Z,7.63
2019-03-11T21:45:16.515Z,7.40
2019-03-11T21:47:46.226Z,7.60
2019-03-11T21:50:17.086Z,7.50
2019-03-11T21:52:46.464Z,6.53
2019-03-11T21:55:16.070Z,8.03
2019-03-11T21:57:45.292Z,7.87
2019-03-11T22:00:16.908Z,8.00
2019-03-11T22:02:46.224Z,7.53
2019-03-11T22:05:15.818Z,7.63
2019-03-11T22:07:45.136Z,8.33
2019-03-11T22:10:14.382Z,7.63
2019-03-11T22:12:43.891Z,7.77
2019-03-11T22:15:13.545Z,6.67
2019-03-11T22:17:43.087Z,6.53
2019-03-11T22:20:13.590Z,6.90
2019-03-11T22:22:42.768Z,6.50
2019-03-11T22:25:12.908Z,6.63
2019-03-11T22:27:42.495Z,6.57
2019-03-11T22:30:18.976Z,6.73
2019-03-11T22:32:48.192Z,7.03
2019-03-11T22:35:18.203Z,7.37
2019-03-11T22:37:47.352Z,7.60
2019-03-11T22:40:17.436Z,6.80
2019-03-11T22:42:47.130Z,7.70
2019-03-11T22:45:18.498Z,7.33
2019-03-11T22:47:47.671Z,6.37
2019-03-11T22:50:17.945Z,6.90
2019-03-11T22:52:47.757Z,7.23
2019-03-11T22:55:17.294Z,7.07
2019-03-11T22:57:46.704Z,6.83
2019-03-11T23:00:32.274Z,7.53
2019-03-11T23:03:01.866Z,6.47
2019-03-11T23:05:31.064Z,7.30
2019-03-11T23:08:00.641Z,7.17
2019-03-11T23:10:30.222Z,6.50
2019-03-11T23:12:59.515Z,5.80
2019-03-11T23:15:29.200Z,6.43
2019-03-11T23:17:58.362Z,6.67
2019-03-11T23:20:27.546Z,6.53
2019-03-11T23:22:56.717Z,7.60
2019-03-11T23:25:26.542Z,6.80
2019-03-11T23:27:55.770Z,7.73
2019-03-11T23:30:25.028Z,7.03
2019-03-11T23:32:54.237Z,7.07
2019-03-11T23:35:23.434Z,6.37
2019-03-11T23:37:52.591Z,6.43
2019-03-11T23:40:21.842Z,6.67
2019-03-11T23:42:51.123Z,7.27
2019-03-11T23:45:20.334Z,6.80
2019-03-11T23:47:49.538Z,6.53
2019-03-11T23:50:19.609Z,5.90
2019-03-11T23:52:49.042Z,6.53
2019-03-11T23:55:18.256Z,5.77
2019-03-11T23:57:47.434Z,6.57
